createdAt,value
2018-05-31T00:01:21.009Z,21.90
2018-05-31T00:04:23.538Z,19.53
2018-05-31T00:07:26.103Z,19.50
2018-05-31T00:10:28.591Z,24.30
2018-05-31T00:13:31.197Z,18.03
2018-05-31T00:16:33.767Z,17.93
2018-05-31T00:19:36.290Z,20.07
2018-05-31T00:22:38.799Z,23.03
2018-05-31T00:25:41.271Z,24.00
2018-05-31T00:28:43.789Z,31.17
2018-05-31T00:31:46.284Z,27.57
2018-05-31T00:34:48.776Z,28.30
2018-05-31T00:37:51.227Z,30.93
2018-05-31T00:40:53.752Z,29.83
2018-05-31T00:43:56.240Z,27.70
2018-05-31T00:46:58.743Z,26.10
2018-05-31T00:50:01.195Z,27.10
2018-05-31T00:53:03.738Z,27.90
2018-05-31T00:56:17.235Z,28.70
2018-05-31T00:59:19.724Z,30.67
2018-05-31T01:02:22.201Z,32.00
2018-05-31T01:05:24.690Z,31.70
2018-05-31T01:08:27.189Z,31.77
2018-05-31T01:11:29.704Z,33.77
2018-05-31T01:14:32.208Z,32.07
2018-05-31T01:17:34.713Z,36.37
2018-05-31T01:20:37.222Z,39.60
2018-05-31T01:23:39.760Z,38.87
2018-05-31T01:26:42.312Z,41.50
2018-05-31T01:29:44.829Z,40.90
2018-05-31T01:32:47.367Z,39.60
2018-05-31T01:35:49.883Z,39.90
2018-05-31T01:38:52.421Z,42.63
2018-05-31T01:41:54.938Z,41.63
2018-05-31T01:44:57.384Z,41.33
2018-05-31T01:47:59.879Z,40.90
2018-05-31T01:51:02.385Z,42.63
2018-05-31T01:54:04.871Z,39.83
2018-05-31T01:57:07.403Z,43.23
2018-05-31T02:00:09.870Z,38.33
2018-05-31T02:03:12.373Z,40.77
2018-05-31T02:06:14.877Z,40.63
2018-05-31T02:09:17.354Z,42.70
2018-05-31T02:12:19.915Z,40.93
2018-05-31T02:15:22.424Z,42.23
2018-05-31T02:18:24.865Z,40.87
2018-05-31T02:21:27.528Z,37.80
2018-05-31T02:24:30.039Z,35.67
2018-05-31T02:27:32.538Z,38.33
2018-05-31T02:30:35.059Z,40.53
2018-05-31T02:33:37.569Z,44.03
2018-05-31T02:36:40.071Z,42.70
2018-05-31T02:39:42.539Z,39.03
2018-05-31T02:42:45.045Z,25.23
2018-05-31T02:45:47.512Z,19.00
2018-05-31T02:48:49.993Z,17.87
2018-05-31T02:51:52.425Z,17.10
2018-05-31T02:54:54.990Z,20.83
2018-05-31T02:57:57.490Z,20.40
2018-05-31T03:00:59.950Z,24.53
2018-05-31T03:04:02.481Z,25.37
2018-05-31T03:07:04.946Z,23.00
2018-05-31T03:10:07.462Z,21.80
2018-05-31T03:13:09.915Z,17.40
2018-05-31T03:16:12.423Z,21.83
2018-05-31T03:19:14.900Z,23.23
2018-05-31T03:22:17.455Z,23.30
2018-05-31T03:25:20.021Z,20.90
2018-05-31T03:28:22.520Z,28.40
2018-05-31T03:31:25.035Z,27.50
2018-05-31T03:34:27.528Z,26.93
2018-05-31T03:37:30.073Z,23.10
2018-05-31T03:40:32.547Z,22.20
2018-05-31T03:43:35.084Z,25.40
2018-05-31T03:46:37.644Z,23.50
2018-05-31T03:49:40.100Z,21.23
2018-05-31T03:52:42.601Z,20.03
2018-05-31T03:55:45.084Z,19.40
2018-05-31T03:58:47.589Z,20.90
2018-05-31T04:01:50.081Z,22.00
2018-05-31T04:04:52.574Z,21.90
2018-05-31T04:07:55.034Z,21.97
2018-05-31T04:10:58.411Z,22.63
2018-05-31T04:14:00.931Z,21.13
2018-05-31T04:17:03.479Z,21.57
2018-05-31T04:20:05.985Z,25.10
2018-05-31T04:23:08.465Z,23.83
2018-05-31T04:26:10.975Z,23.67
2018-05-31T04:29:13.420Z,28.57
2018-05-31T04:32:15.913Z,29.30
2018-05-31T04:35:18.470Z,26.90
2018-05-31T04:38:21.000Z,28.00
2018-05-31T04:41:23.499Z,25.57
2018-05-31T04:44:26.021Z,27.27
2018-05-31T04:47:28.687Z,25.83
2018-05-31T04:50:31.195Z,25.13
2018-05-31T04:53:33.744Z,25.17
2018-05-31T04:56:36.319Z,24.70
2018-05-31T04:59:38.842Z,24.40
2018-05-31T05:02:41.311Z,24.67
2018-05-31T05:05:43.843Z,24.80
2018-05-31T05:08:46.317Z,24.13
2018-05-31T05:11:48.846Z,21.97
2018-05-31T05:14:51.399Z,24.47
2018-05-31T05:17:53.924Z,25.17
2018-05-31T05:20:56.447Z,23.10
2018-05-31T05:23:58.965Z,22.70
2018-05-31T05:27:01.461Z,23.90
2018-05-31T05:30:03.964Z,23.60
2018-05-31T05:33:06.508Z,23.47
2018-05-31T05:36:09.025Z,23.20
2018-05-31T05:39:11.656Z,21.03
2018-05-31T05:42:14.152Z,22.30
2018-05-31T05:45:16.628Z,21.80
2018-05-31T05:48:19.106Z,21.67
2018-05-31T05:51:21.621Z,20.30
2018-05-31T05:54:24.136Z,21.20
2018-05-31T05:57:26.622Z,20.73
2018-05-31T06:00:29.286Z,21.73
2018-05-31T06:03:31.770Z,19.87
2018-05-31T06:06:34.262Z,21.53
2018-05-31T06:09:36.840Z,21.67
2018-05-31T06:12:39.301Z,22.20
2018-05-31T06:15:41.884Z,22.00
2018-05-31T06:18:44.385Z,20.63
2018-05-31T06:21:46.898Z,21.60
2018-05-31T06:24:49.385Z,22.37
2018-05-31T06:27:51.839Z,21.63
2018-05-31T06:30:54.337Z,21.43
2018-05-31T06:33:56.791Z,22.57
2018-05-31T06:36:59.292Z,21.53
2018-05-31T06:40:01.853Z,20.33
2018-05-31T06:43:04.452Z,18.70
2018-05-31T06:46:06.931Z,17.60
2018-05-31T06:49:09.436Z,16.60
2018-05-31T06:52:11.918Z,15.03
2018-05-31T06:55:14.504Z,15.33
2018-05-31T06:58:17.056Z,16.93
2018-05-31T07:01:19.592Z,16.80
2018-05-31T07:04:23.311Z,15.50
2018-05-31T07:07:25.793Z,16.73
2018-05-31T07:10:28.266Z,15.10
2018-05-31T07:13:30.781Z,16.47
2018-05-31T07:16:33.235Z,16.07
2018-05-31T07:19:35.841Z,15.23
2018-05-31T07:22:38.310Z,16.50
2018-05-31T07:25:40.782Z,15.57
2018-05-31T07:28:43.238Z,15.90
2018-05-31T07:31:45.747Z,14.80
2018-05-31T07:34:48.207Z,13.97
2018-05-31T07:37:50.792Z,13.53
2018-05-31T07:40:53.272Z,14.90
2018-05-31T07:43:55.767Z,13.57
2018-05-31T07:46:58.337Z,14.47
2018-05-31T07:50:00.834Z,12.30
2018-05-31T07:53:03.710Z,12.43
2018-05-31T07:56:06.160Z,13.60
2018-05-31T07:59:08.753Z,13.47
2018-05-31T08:02:11.216Z,13.63
2018-05-31T08:05:13.788Z,13.33
2018-05-31T08:08:16.307Z,13.77
2018-05-31T08:11:18.870Z,15.13
2018-05-31T08:14:21.328Z,13.80
2018-05-31T08:17:23.843Z,14.23
2018-05-31T08:20:26.372Z,14.30
2018-05-31T08:23:28.844Z,14.40
2018-05-31T08:26:31.377Z,12.67
2018-05-31T08:29:33.937Z,13.77
2018-05-31T08:32:36.569Z,14.07
2018-05-31T08:35:39.062Z,14.43
2018-05-31T08:38:41.544Z,13.57
2018-05-31T08:41:44.062Z,14.13
2018-05-31T08:44:46.607Z,13.97
2018-05-31T08:47:49.133Z,14.00
2018-05-31T08:50:51.627Z,13.80
2018-05-31T08:53:54.117Z,14.00
2018-05-31T08:56:56.615Z,12.93
2018-05-31T08:59:59.152Z,12.40
2018-05-31T09:03:01.713Z,12.00
2018-05-31T09:06:04.207Z,13.03
2018-05-31T09:09:06.685Z,14.13
2018-05-31T09:12:09.181Z,13.27
2018-05-31T09:15:11.728Z,14.60
2018-05-31T09:18:14.249Z,13.83
2018-05-31T09:21:16.816Z,14.50
2018-05-31T09:24:19.413Z,13.73
2018-05-31T09:27:22.000Z,15.20
2018-05-31T09:30:24.574Z,13.83
2018-05-31T09:33:27.063Z,14.00
2018-05-31T09:36:29.547Z,13.10
2018-05-31T09:39:31.979Z,13.37
2018-05-31T09:42:34.500Z,13.77
2018-05-31T09:45:36.990Z,13.20
2018-05-31T09:48:39.575Z,12.90
2018-05-31T09:51:42.052Z,13.23
2018-05-31T09:54:44.532Z,13.23
2018-05-31T09:57:47.068Z,13.30
2018-05-31T10:00:49.600Z,12.70
2018-05-31T10:03:52.207Z,13.33
2018-05-31T10:06:54.734Z,11.97
2018-05-31T10:09:57.214Z,13.37
2018-05-31T10:12:59.704Z,13.47
2018-05-31T10:16:02.240Z,14.47
2018-05-31T10:19:04.698Z,13.37
2018-05-31T10:22:07.259Z,13.03
2018-05-31T10:25:09.793Z,12.83
2018-05-31T10:28:12.353Z,12.90
2018-05-31T10:31:14.886Z,14.23
2018-05-31T10:34:17.475Z,14.20
2018-05-31T10:37:19.943Z,12.83
2018-05-31T10:40:22.474Z,15.60
2018-05-31T10:43:24.995Z,14.00
2018-05-31T10:46:27.563Z,14.07
2018-05-31T10:49:30.062Z,13.60
2018-05-31T10:52:32.524Z,14.77
2018-05-31T10:55:35.105Z,14.40
2018-05-31T10:58:37.598Z,14.13
2018-05-31T11:01:40.131Z,17.40
2018-05-31T11:04:42.726Z,17.10
2018-05-31T11:07:45.258Z,16.50
2018-05-31T11:10:47.780Z,17.17
2018-05-31T11:13:50.702Z,17.17
2018-05-31T11:16:53.196Z,17.50
2018-05-31T11:19:55.781Z,17.47
2018-05-31T11:22:58.236Z,15.60
2018-05-31T11:26:00.759Z,15.10
2018-05-31T11:29:03.249Z,14.30
2018-05-31T11:32:05.779Z,15.33
2018-05-31T11:35:08.259Z,15.03
2018-05-31T11:38:10.736Z,14.40
2018-05-31T11:41:13.216Z,14.50
2018-05-31T11:44:15.806Z,13.60
2018-05-31T11:47:18.346Z,14.03
2018-05-31T11:50:20.824Z,13.83
2018-05-31T11:53:23.395Z,13.43
2018-05-31T11:56:25.917Z,12.77
2018-05-31T11:59:28.541Z,12.30
2018-05-31T12:02:31.079Z,12.93
2018-05-31T12:05:33.557Z,12.13
2018-05-31T12:08:36.090Z,11.70
2018-05-31T12:11:38.550Z,11.60
2018-05-31T12:14:41.051Z,11.40
2018-05-31T12:17:43.586Z,12.27
2018-05-31T12:20:46.121Z,11.90
2018-05-31T12:23:48.613Z,12.00
2018-05-31T12:26:51.179Z,11.90
2018-05-31T12:29:53.699Z,11.53
2018-05-31T12:32:56.196Z,11.40
2018-05-31T12:35:58.711Z,11.30
2018-05-31T12:39:01.226Z,10.93
2018-05-31T12:42:03.777Z,11.13
2018-05-31T12:45:06.275Z,10.97
2018-05-31T12:48:08.781Z,9.50
2018-05-31T12:51:11.320Z,10.70
2018-05-31T12:54:13.825Z,10.13
2018-05-31T12:57:16.304Z,10.00
2018-05-31T13:00:18.774Z,10.03
2018-05-31T13:03:21.276Z,9.70
2018-05-31T13:06:23.766Z,10.00
2018-05-31T13:09:26.638Z,10.00
2018-05-31T13:12:29.115Z,9.60
2018-05-31T13:15:31.612Z,10.40
2018-05-31T13:18:34.066Z,11.07
2018-05-31T13:21:36.661Z,9.63
2018-05-31T13:24:39.255Z,10.40
2018-05-31T13:27:41.740Z,10.17
2018-05-31T13:30:44.301Z,10.07
2018-05-31T13:33:46.760Z,9.30
2018-05-31T13:36:49.283Z,10.00
2018-05-31T13:39:51.742Z,9.83
2018-05-31T13:42:56.165Z,9.40
2018-05-31T13:45:58.671Z,10.33
2018-05-31T13:49:01.282Z,9.60
2018-05-31T13:52:03.865Z,9.00
2018-05-31T13:55:06.402Z,9.00
2018-05-31T13:58:08.920Z,8.90
2018-05-31T14:01:11.430Z,9.60
2018-05-31T14:04:13.888Z,9.00
2018-05-31T14:07:16.482Z,8.83
2018-05-31T14:10:18.977Z,9.00
2018-05-31T14:13:21.542Z,9.27
2018-05-31T14:16:24.059Z,9.27
2018-05-31T14:19:26.546Z,9.50
2018-05-31T14:22:29.093Z,9.67
2018-05-31T14:25:31.611Z,10.00
2018-05-31T14:28:34.101Z,9.97
2018-05-31T14:31:36.655Z,9.70
2018-05-31T14:34:44.452Z,11.10
2018-05-31T14:37:48.447Z,10.20
2018-05-31T14:40:50.922Z,10.07
2018-05-31T14:43:53.552Z,9.33
2018-05-31T14:46:56.032Z,9.37
2018-05-31T14:49:58.614Z,9.80
2018-05-31T14:53:01.052Z,9.70
2018-05-31T14:56:03.556Z,10.47
2018-05-31T14:59:06.142Z,10.10
2018-05-31T15:02:08.668Z,10.50
2018-05-31T15:05:11.207Z,10.10
2018-05-31T15:08:13.703Z,10.40
2018-05-31T15:11:16.214Z,9.60
2018-05-31T15:14:18.697Z,9.87
2018-05-31T15:17:21.312Z,9.83
2018-05-31T15:20:23.831Z,9.50
2018-05-31T15:23:26.326Z,9.87
2018-05-31T15:26:29.828Z,10.07
2018-05-31T15:29:32.296Z,10.57
2018-05-31T15:32:34.847Z,10.93
2018-05-31T15:35:37.326Z,11.10
2018-05-31T15:38:39.908Z,10.10
2018-05-31T15:41:42.394Z,10.70
2018-05-31T15:44:44.920Z,10.60
2018-05-31T15:47:47.443Z,10.40
2018-05-31T15:50:49.969Z,11.33
2018-05-31T15:53:52.476Z,10.90
2018-05-31T15:56:55.030Z,10.60
2018-05-31T15:59:57.554Z,9.87
2018-05-31T16:03:00.091Z,10.57
2018-05-31T16:06:02.606Z,10.93
2018-05-31T16:09:05.973Z,11.37
2018-05-31T16:12:08.476Z,11.77
2018-05-31T16:15:11.027Z,11.20
2018-05-31T16:18:13.661Z,11.30
2018-05-31T16:21:16.169Z,11.20
2018-05-31T16:24:18.633Z,11.67
2018-05-31T16:27:21.147Z,11.83
2018-05-31T16:30:23.646Z,12.27
2018-05-31T16:33:26.117Z,12.60
2018-05-31T16:36:28.680Z,12.50
2018-05-31T16:39:31.231Z,12.37
2018-05-31T16:42:33.808Z,12.70
2018-05-31T16:45:36.375Z,12.93
2018-05-31T16:48:38.929Z,12.83
2018-05-31T16:51:41.452Z,13.00
2018-05-31T16:54:43.965Z,13.47
2018-05-31T16:57:46.472Z,12.77
2018-05-31T17:00:48.936Z,11.70
2018-05-31T17:03:51.488Z,12.17
2018-05-31T17:06:53.923Z,12.87
2018-05-31T17:09:56.418Z,13.30
2018-05-31T17:12:58.928Z,13.40
2018-05-31T17:16:01.410Z,13.40
2018-05-31T17:19:03.931Z,12.73
2018-05-31T17:22:06.398Z,12.20
2018-05-31T17:25:08.898Z,11.97
2018-05-31T17:28:11.474Z,11.80
2018-05-31T17:31:13.943Z,11.80
2018-05-31T17:34:16.454Z,11.23
2018-05-31T17:37:18.912Z,11.17
2018-05-31T17:40:21.413Z,10.70
2018-05-31T17:43:23.933Z,12.33
2018-05-31T17:46:26.573Z,14.37
2018-05-31T17:49:29.173Z,14.23
2018-05-31T17:52:31.720Z,13.53
2018-05-31T17:55:34.248Z,15.30
2018-05-31T17:58:36.979Z,14.00
2018-05-31T18:01:39.628Z,14.60
2018-05-31T18:04:42.090Z,14.30
2018-05-31T18:07:44.644Z,13.87
2018-05-31T18:10:47.120Z,14.20
2018-05-31T18:13:49.595Z,13.57
2018-05-31T18:16:52.103Z,13.40
2018-05-31T18:19:54.799Z,12.83
2018-05-31T18:22:57.320Z,11.97
2018-05-31T18:25:59.890Z,12.63
2018-05-31T18:29:02.335Z,12.80
2018-05-31T18:32:04.813Z,12.10
2018-05-31T18:35:07.308Z,12.27
2018-05-31T18:38:09.862Z,12.13
2018-05-31T18:41:12.338Z,12.83
2018-05-31T18:44:14.858Z,11.70
2018-05-31T18:47:17.300Z,12.63
2018-05-31T18:50:19.924Z,11.90
2018-05-31T18:53:22.431Z,11.97
2018-05-31T18:56:24.856Z,12.43
2018-05-31T18:59:27.407Z,13.13
2018-05-31T19:02:29.889Z,14.60
2018-05-31T19:05:32.401Z,12.93
2018-05-31T19:08:34.917Z,12.57
2018-05-31T19:11:37.539Z,12.50
2018-05-31T19:14:40.043Z,12.87
2018-05-31T19:17:42.515Z,12.47
2018-05-31T19:20:44.999Z,13.10
2018-05-31T19:23:47.483Z,12.93
2018-05-31T19:26:50.114Z,12.30
2018-05-31T19:29:52.607Z,13.07
2018-05-31T19:32:55.095Z,13.50
2018-05-31T19:36:03.470Z,14.20
2018-05-31T19:39:05.938Z,14.70
2018-05-31T19:42:14.060Z,15.27
2018-05-31T19:45:16.580Z,14.47
2018-05-31T19:48:19.128Z,13.47
2018-05-31T19:51:27.280Z,13.00
2018-05-31T19:54:29.865Z,14.90
2018-05-31T19:57:32.519Z,15.30
2018-05-31T20:00:40.578Z,17.00
2018-05-31T20:03:43.171Z,18.00
2018-05-31T20:06:45.801Z,14.10
2018-05-31T20:09:48.343Z,14.50
2018-05-31T20:12:50.899Z,13.37
2018-05-31T20:15:53.371Z,14.33
2018-05-31T20:18:55.933Z,14.73
2018-05-31T20:21:58.440Z,15.67
2018-05-31T20:25:00.965Z,14.70
2018-05-31T20:28:03.455Z,16.43
2018-05-31T20:31:05.981Z,15.93
2018-05-31T20:34:08.516Z,17.00
2018-05-31T20:37:11.014Z,16.47
2018-05-31T20:40:13.581Z,16.50
2018-05-31T20:43:16.215Z,16.17
2018-05-31T20:46:18.699Z,16.70
2018-05-31T20:49:21.345Z,18.47
2018-05-31T20:52:23.823Z,17.27
2018-05-31T20:55:26.300Z,17.27
2018-05-31T20:58:28.844Z,16.90
2018-05-31T21:01:31.411Z,17.50
2018-05-31T21:04:33.974Z,18.10
2018-05-31T21:07:36.464Z,18.10
2018-05-31T21:10:39.035Z,17.20
2018-05-31T21:13:41.561Z,16.27
2018-05-31T21:16:44.141Z,17.03
2018-05-31T21:19:46.771Z,17.03
2018-05-31T21:22:49.318Z,17.40
2018-05-31T21:25:51.876Z,17.67
2018-05-31T21:28:54.404Z,18.33
2018-05-31T21:31:56.921Z,18.60
2018-05-31T21:34:59.474Z,18.77
2018-05-31T21:38:02.487Z,18.67
2018-05-31T21:41:04.996Z,17.47
2018-05-31T21:44:07.572Z,18.20
2018-05-31T21:47:10.967Z,19.53
2018-05-31T21:50:13.512Z,18.33
2018-05-31T21:53:16.082Z,18.90
2018-05-31T21:56:18.582Z,17.47
2018-05-31T21:59:21.052Z,20.07
2018-05-31T22:02:24.902Z,19.77
2018-05-31T22:05:27.380Z,20.30
2018-05-31T22:08:29.906Z,19.23
2018-05-31T22:11:32.387Z,19.90
2018-05-31T22:14:34.936Z,20.73
2018-05-31T22:17:37.421Z,19.97
2018-05-31T22:20:39.965Z,20.30
2018-05-31T22:23:42.472Z,18.30
2018-05-31T22:26:44.976Z,18.00
2018-05-31T22:29:47.482Z,17.70
2018-05-31T22:32:49.975Z,18.03
2018-05-31T22:35:52.500Z,19.43
2018-05-31T22:38:54.967Z,18.50
2018-05-31T22:41:57.482Z,17.83
2018-05-31T22:44:59.981Z,19.03
2018-05-31T22:48:02.502Z,19.40
2018-05-31T22:51:05.041Z,17.50
2018-05-31T22:54:07.495Z,17.20
2018-05-31T22:57:10.016Z,17.50
2018-05-31T23:00:12.583Z,16.63
2018-05-31T23:03:15.057Z,16.87
2018-05-31T23:06:17.693Z,17.23
2018-05-31T23:09:20.252Z,16.80
2018-05-31T23:12:22.810Z,18.03
2018-05-31T23:15:25.290Z,17.67
2018-05-31T23:18:27.813Z,18.33
2018-05-31T23:21:30.337Z,19.00
2018-05-31T23:24:32.961Z,18.67
2018-05-31T23:27:35.412Z,20.17
2018-05-31T23:30:37.978Z,20.57
2018-05-31T23:33:40.445Z,20.53
2018-05-31T23:36:42.945Z,20.33
2018-05-31T23:39:45.467Z,21.00
2018-05-31T23:42:48.034Z,19.57
2018-05-31T23:45:50.594Z,19.23
2018-05-31T23:48:53.135Z,19.30
2018-05-31T23:51:55.609Z,19.00
2018-05-31T23:54:58.126Z,18.57
2018-05-31T23:58:00.565Z,18.57
